Time;durP1;ratioP1;P1;durP2;ratioP2;P2;SDS_P1;SDS_P2;PMS_P1;PMS_P2;Temp;Humidity;BMP_temperature;BMP_pressure;BME280_temperature;BME280_humidity;BME280_pressure;Samples;Min_cycle;Max_cycle;Signal;HPM_P1;HPM_P2
2022/12/30 00:01:32;;;;;;;2.92;1.75;;;;;;;15.83;59.17;97439.34;5134453;27;20023;-29
2022/12/30 00:03:57;;;;;;;3.83;2.03;;;;;;;15.90;58.99;97444.63;5118465;28;20027;-29
2022/12/30 00:06:25;;;;;;;3.00;1.90;;;;;;;15.92;58.90;97439.50;5122919;28;20471;-28
2022/12/30 00:08:54;;;;;;;4.68;2.10;;;;;;;15.97;58.94;97438.94;5132481;27;20109;-30
2022/12/30 00:11:28;;;;;;;5.20;2.30;;;;;;;15.84;59.40;97438.16;5114117;28;20028;-29
2022/12/30 00:33:08;;;;;;;4.45;2.00;;;;;;;15.91;59.49;97431.72;5118006;27;20072;-28
2022/12/30 00:35:35;;;;;;;5.57;2.13;;;;;;;15.90;59.46;97432.94;5129986;27;20027;-29
2022/12/30 00:38:01;;;;;;;2.92;1.98;;;;;;;15.87;59.43;97439.25;5098952;28;20110;-29
2022/12/30 00:40:26;;;;;;;3.38;1.98;;;;;;;15.97;59.54;97425.25;5117637;27;20548;-29
2022/12/30 00:43:10;;;;;;;2.33;1.60;;;;;;;15.88;59.51;97433.34;5117694;27;20047;-29
2022/12/30 00:45:39;;;;;;;3.13;1.83;;;;;;;15.91;59.58;97439.94;5117313;28;20024;-28
2022/12/30 00:56:17;;;;;;;2.72;1.90;;;;;;;15.97;59.42;97438.16;5137771;27;20374;-28
2022/12/30 00:58:43;;;;;;;2.58;1.83;;;;;;;16.01;59.34;97433.38;5137764;27;20023;-28
2022/12/30 01:01:08;;;;;;;3.33;1.98;;;;;;;15.96;59.41;97445.59;5118094;27;20036;-29
2022/12/30 01:03:34;;;;;;;4.35;1.80;;;;;;;15.88;59.71;97438.81;5098810;28;20026;-29
2022/12/30 01:06:05;;;;;;;3.90;2.00;;;;;;;15.97;59.44;97449.13;5129983;27;20356;-28
2022/12/30 01:08:31;;;;;;;2.45;1.60;;;;;;;15.80;60.01;97437.53;5111464;27;20425;-28
2022/12/30 01:10:57;;;;;;;5.07;2.03;;;;;;;15.92;59.71;97441.47;5117953;27;20062;-30
2022/12/30 01:13:22;;;;;;;2.63;1.75;;;;;;;15.88;59.69;97444.31;5117234;28;20051;-28
2022/12/30 01:16:08;;;;;;;4.00;1.98;;;;;;;15.85;59.84;97447.13;5117023;27;20027;-28
2022/12/30 01:18:34;;;;;;;2.80;2.00;;;;;;;15.92;59.58;97447.72;5117047;27;20103;-28
2022/12/30 01:21:01;;;;;;;3.67;1.85;;;;;;;15.93;59.56;97443.00;5116531;28;20058;-29
2022/12/30 01:23:27;;;;;;;4.90;2.08;;;;;;;15.80;59.91;97435.56;5117003;28;20023;-28
2022/12/30 01:25:52;;;;;;;3.63;1.80;;;;;;;15.84;59.74;97424.47;5117136;28;20015;-28
2022/12/30 01:28:18;;;;;;;4.03;1.80;;;;;;;15.97;59.41;97422.53;5116921;28;20020;-28
2022/12/30 01:30:43;;;;;;;3.42;1.73;;;;;;;15.88;59.69;97419.69;5098227;28;20016;-28
2022/12/30 01:33:09;;;;;;;4.07;2.03;;;;;;;15.82;59.62;97432.38;5117837;27;20016;-29
2022/12/30 01:35:34;;;;;;;4.47;2.17;;;;;;;15.99;59.16;97416.63;5129078;27;20531;-28
2022/12/30 01:37:59;;;;;;;2.25;1.80;;;;;;;15.99;59.27;97425.59;5116491;28;20479;-28
2022/12/30 01:40:25;;;;;;;3.17;1.88;;;;;;;16.14;58.67;97425.91;5116263;27;20102;-29
2022/12/30 01:42:50;;;;;;;4.75;2.00;;;;;;;15.94;59.48;97428.88;5115659;28;20047;-28
2022/12/30 01:45:22;;;;;;;3.80;2.10;;;;;;;16.04;59.09;97424.28;5116515;28;20506;-28
2022/12/30 01:48:11;;;;;;;4.60;2.30;;;;;;;16.09;58.80;97413.53;5119468;27;20076;-29
2022/12/30 01:50:55;;;;;;;2.60;1.80;;;;;;;15.96;59.14;97418.25;5136527;27;20378;-28
2022/12/30 01:53:27;;;;;;;2.38;1.80;;;;;;;16.12;58.89;97418.16;5136906;27;20034;-29
2022/12/30 01:56:08;;;;;;;4.10;1.83;;;;;;;16.12;58.64;97425.59;5121683;27;20099;-28
2022/12/30 01:58:37;;;;;;;2.55;1.63;;;;;;;16.07;58.74;97429.63;5116210;27;20065;-28
2022/12/30 02:01:03;;;;;;;3.17;2.35;;;;;;;15.98;59.25;97426.03;5119549;27;20064;-28
2022/12/30 02:03:34;;;;;;;2.05;1.52;;;;;;;15.97;59.17;97417.06;5136646;27;20027;-28
2022/12/30 02:05:59;;;;;;;2.00;1.80;;;;;;;15.93;59.31;97415.66;5118647;27;20414;-29
2022/12/30 02:08:27;;;;;;;4.00;1.92;;;;;;;15.87;59.39;97398.22;5097812;28;20024;-29
2022/12/30 02:10:55;;;;;;;3.58;2.05;;;;;;;15.87;59.47;97400.97;5115758;28;20016;-28
2022/12/30 02:13:21;;;;;;;4.65;2.10;;;;;;;15.83;59.54;97412.00;5115853;28;20023;-28
2022/12/30 02:16:08;;;;;;;3.17;2.00;;;;;;;15.91;59.38;97401.63;5115593;27;20032;-28
2022/12/30 02:19:13;;;;;;;3.10;1.83;;;;;;;15.81;59.66;97392.56;5131066;27;20027;-28
2022/12/30 02:22:16;;;;;;;3.25;1.95;;;;;;;16.01;59.06;97395.06;5122204;27;20020;-28
2022/12/30 02:24:56;;;;;;;4.80;1.83;;;;;;;15.85;59.60;97401.41;5115886;28;20046;-28
2022/12/30 02:27:40;;;;;;;3.95;2.20;;;;;;;16.01;59.12;97395.81;5115678;28;20019;-28
2022/12/30 02:30:14;;;;;;;3.55;1.98;;;;;;;16.06;58.87;97403.50;5129383;27;20016;-28
2022/12/30 02:33:06;;;;;;;2.22;1.90;;;;;;;16.05;58.99;97407.44;5104534;27;20011;-28
2022/12/30 02:35:44;;;;;;;3.60;2.20;;;;;;;15.95;59.28;97403.03;5115338;28;20023;-29
2022/12/30 02:38:25;;;;;;;2.30;1.98;;;;;;;15.92;59.41;97403.94;5115697;27;20503;-28
2022/12/30 02:46:37;;;;;;;3.10;2.28;;;;;;;15.98;59.36;97407.63;5115435;27;20148;-28
2022/12/30 02:49:05;;;;;;;2.47;1.70;;;;;;;15.99;59.33;97389.25;5097238;28;20110;-29
2022/12/30 02:54:16;;;;;;;2.70;1.98;;;;;;;15.94;59.52;97392.56;5130304;27;20048;-28
2022/12/30 02:56:50;;;;;;;3.45;1.88;;;;;;;16.05;59.05;97387.50;5134971;27;20019;-28
2022/12/30 03:05:22;;;;;;;3.78;2.00;;;;;;;15.95;59.35;97370.22;5114989;28;20043;-29
2022/12/30 03:08:12;;;;;;;2.97;2.08;;;;;;;15.99;59.50;97375.56;5104957;28;20119;-28
2022/12/30 03:13:50;;;;;;;3.85;2.30;;;;;;;15.99;59.11;97384.56;5114852;28;20031;-28
2022/12/30 03:16:25;;;;;;;3.63;2.20;;;;;;;16.01;59.28;97382.16;5115007;28;20064;-28
2022/12/30 03:18:53;;;;;;;2.85;1.98;;;;;;;15.92;59.34;97384.78;5114502;28;20023;-28
2022/12/30 03:21:20;;;;;;;2.75;2.03;;;;;;;15.91;59.45;97385.97;5114672;28;20031;-29
2022/12/30 03:29:25;;;;;;;5.70;2.47;;;;;;;15.95;59.22;97370.22;5114368;28;20050;-28
2022/12/30 03:31:52;;;;;;;4.40;2.28;;;;;;;15.97;59.26;97364.31;5114221;28;20024;-28
2022/12/30 03:34:18;;;;;;;2.83;1.95;;;;;;;15.89;59.52;97360.28;5114026;28;20089;-29
2022/12/30 03:36:48;;;;;;;3.55;2.50;;;;;;;16.00;59.33;97361.47;5095800;28;20019;-29
2022/12/30 03:39:18;;;;;;;3.28;2.30;;;;;;;15.99;59.38;97348.22;5113975;28;20480;-28
2022/12/30 03:41:47;;;;;;;3.45;1.85;;;;;;;15.92;59.47;97341.00;5114347;28;20071;-29
2022/12/30 03:44:13;;;;;;;3.67;1.80;;;;;;;15.86;59.68;97345.50;5114652;28;20102;-28
2022/12/30 03:46:41;;;;;;;2.50;1.90;;;;;;;15.88;59.58;97350.53;5114053;28;20019;-28
2022/12/30 03:49:07;;;;;;;2.97;2.35;;;;;;;15.98;59.36;97336.50;5126912;27;20027;-28
2022/12/30 03:51:33;;;;;;;4.05;2.13;;;;;;;16.02;59.17;97336.41;5128233;27;20024;-28
2022/12/30 03:53:58;;;;;;;2.95;2.30;;;;;;;15.86;59.51;97334.56;5127373;27;20019;-28
2022/12/30 03:56:24;;;;;;;4.53;2.22;;;;;;;15.93;59.31;97342.56;5116711;27;20047;-28
2022/12/30 03:58:49;;;;;;;5.05;2.45;;;;;;;16.05;58.94;97339.03;5127048;27;20094;-28
2022/12/30 04:01:14;;;;;;;4.03;2.60;;;;;;;15.96;59.24;97338.91;5127903;27;20085;-29
2022/12/30 04:03:40;;;;;;;4.45;2.47;;;;;;;15.95;59.31;97342.84;5113499;28;20035;-28
2022/12/30 04:06:06;;;;;;;4.32;2.60;;;;;;;15.98;59.26;97347.44;5095775;28;20289;-28
2022/12/30 04:08:31;;;;;;;5.53;2.60;;;;;;;16.11;58.70;97348.19;5113852;28;20065;-29
2022/12/30 04:10:57;;;;;;;7.18;2.83;;;;;;;16.03;58.94;97352.38;5113516;28;20034;-28
2022/12/30 04:27:42;;;;;;;6.45;2.60;;;;;;;15.84;59.75;97358.84;5116985;28;20547;-28
2022/12/30 04:30:08;;;;;;;3.85;2.35;;;;;;;15.85;59.70;97354.13;5094944;28;20031;-29
2022/12/30 04:32:33;;;;;;;4.63;2.67;;;;;;;15.87;59.55;97363.44;5115319;28;20023;-28
2022/12/30 04:34:59;;;;;;;4.32;2.50;;;;;;;15.87;59.68;97362.66;5114403;28;20015;-28
2022/12/30 04:37:24;;;;;;;4.68;2.53;;;;;;;15.90;59.59;97359.84;5113515;28;20482;-29
2022/12/30 04:39:49;;;;;;;3.08;2.40;;;;;;;16.05;59.13;97357.41;5113524;28;20468;-28
2022/12/30 04:42:15;;;;;;;5.00;2.30;;;;;;;16.06;59.22;97358.94;5113526;28;20527;-28
2022/12/30 04:44:40;;;;;;;4.55;2.33;;;;;;;15.91;59.69;97355.91;5127048;28;20383;-28
2022/12/30 04:47:06;;;;;;;4.72;2.65;;;;;;;15.94;59.41;97365.19;5113497;28;20028;-29
2022/12/30 04:49:31;;;;;;;3.85;2.40;;;;;;;15.88;59.82;97375.91;5117092;28;20098;-29
2022/12/30 04:51:57;;;;;;;3.88;2.20;;;;;;;15.93;59.77;97356.22;5123376;28;20456;-28
2022/12/30 04:54:22;;;;;;;4.65;2.45;;;;;;;15.90;59.82;97351.63;5130711;28;20019;-28
2022/12/30 04:56:48;;;;;;;3.13;2.22;;;;;;;15.94;59.70;97341.34;5133699;28;20047;-28
2022/12/30 04:59:13;;;;;;;3.78;2.65;;;;;;;15.80;60.26;97339.06;5133658;28;20039;-28
2022/12/30 05:01:38;;;;;;;2.97;2.30;;;;;;;15.94;59.52;97335.88;5134205;28;20026;-28
2022/12/30 05:04:04;;;;;;;3.05;2.13;;;;;;;15.94;59.49;97335.88;5116032;28;20472;-28
2022/12/30 05:06:29;;;;;;;4.57;2.58;;;;;;;15.92;59.50;97335.53;5113716;28;20337;-28
2022/12/30 05:08:55;;;;;;;4.22;2.60;;;;;;;15.99;59.54;97343.50;5113325;28;20479;-28
2022/12/30 05:11:20;;;;;;;3.85;2.38;;;;;;;15.94;59.69;97338.59;5113393;28;20384;-28
2022/12/30 05:13:45;;;;;;;4.25;2.55;;;;;;;16.05;59.45;97339.03;5113420;28;20102;-28
2022/12/30 05:16:11;;;;;;;4.47;2.55;;;;;;;16.04;59.27;97345.72;5113954;28;20020;-29
2022/12/30 05:18:37;;;;;;;3.55;2.47;;;;;;;15.97;59.65;97343.19;5116948;28;20028;-29
2022/12/30 05:21:03;;;;;;;5.82;2.20;;;;;;;16.04;59.49;97350.41;5116865;28;20106;-29
2022/12/30 05:26:15;;;;;;;4.18;2.35;;;;;;;16.01;59.52;97368.47;5116787;28;20046;-28
2022/12/30 05:28:42;;;;;;;4.20;2.35;;;;;;;15.96;59.70;97369.00;5116725;28;20020;-28
2022/12/30 05:31:08;;;;;;;3.90;2.22;;;;;;;16.06;59.48;97356.97;5116897;28;20589;-28
2022/12/30 05:33:34;;;;;;;2.85;2.17;;;;;;;16.01;59.55;97364.97;5116742;28;20106;-28
2022/12/30 05:35:59;;;;;;;4.72;2.38;;;;;;;15.97;59.81;97367.03;5116724;28;20141;-28
2022/12/30 05:38:25;;;;;;;5.00;2.45;;;;;;;16.01;59.61;97354.03;5116860;28;20156;-30
2022/12/30 05:40:51;;;;;;;3.90;2.20;;;;;;;15.99;59.67;97359.16;5116580;28;20043;-28
2022/12/30 05:43:16;;;;;;;3.63;2.38;;;;;;;16.03;59.62;97348.88;5116554;28;20028;-29
2022/12/30 05:45:42;;;;;;;4.20;2.58;;;;;;;15.92;59.80;97357.44;5116156;28;20034;-28
2022/12/30 05:48:07;;;;;;;4.85;2.40;;;;;;;15.90;60.07;97357.09;5116430;28;20015;-28
2022/12/30 05:50:41;;;;;;;4.18;2.50;;;;;;;15.96;59.75;97355.31;5116374;28;20015;-28
2022/12/30 05:53:09;;;;;;;3.40;2.60;;;;;;;15.90;59.89;97357.09;5116475;28;20103;-28
2022/12/30 05:55:41;;;;;;;3.78;2.20;;;;;;;15.89;59.93;97358.31;5116251;28;20030;-29
2022/12/30 05:58:06;;;;;;;3.65;2.20;;;;;;;15.92;59.91;97364.88;5116325;28;20028;-30
2022/12/30 06:00:32;;;;;;;3.30;2.38;;;;;;;15.90;59.89;97364.53;5100304;27;20364;-29
2022/12/30 06:19:46;;;;;;;4.10;2.75;;;;;;;15.86;59.92;97356.44;5124279;27;20080;-28
2022/12/30 06:22:12;;;;;;;5.63;3.10;;;;;;;15.83;60.29;97351.84;5123496;27;20023;-29
2022/12/30 06:24:38;;;;;;;3.95;2.92;;;;;;;15.73;60.51;97355.66;5119548;27;20058;-29
2022/12/30 06:27:04;;;;;;;6.00;3.13;;;;;;;15.97;59.62;97353.34;5108340;27;20043;-28
2022/12/30 06:29:29;;;;;;;3.17;2.88;;;;;;;15.79;60.33;97356.66;5134019;27;20034;-30
2022/12/30 06:31:55;;;;;;;5.22;3.40;;;;;;;16.00;59.73;97361.47;5134258;27;20024;-29
2022/12/30 06:34:20;;;;;;;5.15;3.50;;;;;;;15.87;59.99;97360.69;5134039;27;20027;-29
2022/12/30 06:36:47;;;;;;;5.10;3.03;;;;;;;15.93;59.95;97372.63;5114927;27;20049;-28
2022/12/30 06:39:12;;;;;;;5.20;3.35;;;;;;;16.00;59.82;97377.88;5134006;27;20026;-28
2022/12/30 06:41:38;;;;;;;5.60;3.53;;;;;;;15.94;59.81;97385.13;5122657;27;20015;-28
2022/12/30 06:44:03;;;;;;;3.88;3.20;;;;;;;15.88;60.17;97395.06;5118494;27;20111;-29
2022/12/30 06:46:29;;;;;;;4.18;2.88;;;;;;;15.88;60.24;97403.28;5122562;27;20030;-28
2022/12/30 06:48:54;;;;;;;7.82;3.60;;;;;;;15.97;59.92;97388.94;5123735;27;20023;-28
2022/12/30 06:51:19;;;;;;;6.35;3.47;;;;;;;15.99;59.79;97384.56;5124464;27;20026;-28
2022/12/30 06:53:45;;;;;;;5.80;3.60;;;;;;;15.80;60.63;97393.75;5122462;27;20055;-28
2022/12/30 06:56:10;;;;;;;6.55;3.53;;;;;;;16.03;59.84;97396.16;5133600;27;20031;-29
2022/12/30 06:58:36;;;;;;;5.43;3.10;;;;;;;15.79;60.63;97400.44;5133585;27;20053;-28
2022/12/30 07:01:02;;;;;;;6.63;3.70;;;;;;;15.82;60.45;97411.25;5133073;27;20399;-28
2022/12/30 07:03:27;;;;;;;4.63;3.08;;;;;;;15.89;60.29;97410.28;5133407;27;20023;-28
2022/12/30 07:05:53;;;;;;;5.47;3.28;;;;;;;15.88;60.40;97424.38;5114972;27;20479;-30
2022/12/30 07:08:19;;;;;;;5.22;3.30;;;;;;;15.78;60.67;97426.25;5130230;27;20023;-28
2022/12/30 07:10:45;;;;;;;6.88;3.20;;;;;;;16.01;59.99;97422.41;5122590;27;20098;-28
2022/12/30 07:13:13;;;;;;;5.90;3.40;;;;;;;15.94;60.18;97422.66;5131748;27;20448;-27
2022/12/30 07:15:39;;;;;;;6.38;3.20;;;;;;;15.87;60.49;97418.16;5133179;27;20019;-29
2022/12/30 07:18:05;;;;;;;4.30;2.95;;;;;;;15.92;60.27;97425.06;5133226;27;20102;-28
2022/12/30 07:20:30;;;;;;;6.43;2.83;;;;;;;15.91;60.28;97432.50;5113868;27;20033;-29
2022/12/30 07:22:55;;;;;;;5.85;3.40;;;;;;;15.78;60.87;97426.25;5112348;28;20093;-28
2022/12/30 07:25:21;;;;;;;4.68;2.63;;;;;;;15.75;60.90;97429.84;5112275;28;20051;-28
2022/12/30 07:27:46;;;;;;;7.38;2.97;;;;;;;15.82;60.74;97437.09;5112422;28;20456;-28
2022/12/30 07:30:13;;;;;;;8.25;3.45;;;;;;;15.85;60.62;97445.16;5112415;28;20521;-28
2022/12/30 07:32:39;;;;;;;7.25;2.70;;;;;;;15.85;60.52;97447.91;5112432;28;20027;-28
2022/12/30 07:35:07;;;;;;;6.50;3.22;;;;;;;15.89;60.49;97456.78;5112474;28;20031;-28
2022/12/30 07:37:34;;;;;;;5.32;3.00;;;;;;;15.82;60.78;97450.75;5111819;28;20053;-29
2022/12/30 07:39:59;;;;;;;6.43;3.20;;;;;;;15.70;61.05;97458.50;5118301;27;20479;-29
2022/12/30 07:42:24;;;;;;;3.70;2.65;;;;;;;15.85;60.62;97458.84;5121868;27;20051;-27
2022/12/30 07:44:50;;;;;;;5.68;2.75;;;;;;;15.96;60.28;97456.56;5123297;27;20409;-30
2022/12/30 07:47:15;;;;;;;6.20;3.88;;;;;;;15.87;60.69;97456.44;5126063;27;20466;-28
2022/12/30 07:49:41;;;;;;;6.18;3.90;;;;;;;15.84;60.76;97460.03;5096161;28;20024;-28
2022/12/30 07:52:06;;;;;;;6.65;4.25;;;;;;;15.71;61.28;97464.72;5114156;28;20053;-27
2022/12/30 07:54:32;;;;;;;7.70;4.68;;;;;;;15.78;61.01;97461.81;5114066;28;20032;-29
2022/12/30 07:56:57;;;;;;;6.90;4.80;;;;;;;15.76;61.21;97456.00;5115335;27;20519;-28
2022/12/30 07:59:24;;;;;;;10.65;5.88;;;;;;;15.75;61.18;97460.69;5114003;28;20150;-29
2022/12/30 08:01:49;;;;;;;8.70;5.70;;;;;;;15.86;60.82;97468.59;5113555;28;20477;-28
2022/12/30 08:04:15;;;;;;;9.30;5.50;;;;;;;15.80;61.07;97478.53;5096079;28;20035;-29
2022/12/30 08:06:40;;;;;;;8.32;5.13;;;;;;;15.84;60.72;97473.72;5113871;28;20019;-29
2022/12/30 08:09:06;;;;;;;8.82;5.20;;;;;;;15.73;61.20;97473.25;5114065;28;20027;-28
2022/12/30 08:11:32;;;;;;;7.18;4.95;;;;;;;15.80;61.21;97476.59;5113850;28;20023;-28
2022/12/30 08:13:58;;;;;;;6.63;4.80;;;;;;;15.85;61.10;97475.25;5113786;28;20100;-29
2022/12/30 08:16:24;;;;;;;7.68;4.63;;;;;;;15.70;61.81;97487.84;5114059;28;20455;-29
2022/12/30 08:18:51;;;;;;;7.25;5.03;;;;;;;15.74;61.43;97480.28;5113358;28;20043;-29
2022/12/30 08:21:17;;;;;;;5.93;4.38;;;;;;;15.65;61.87;97478.19;5113756;28;20102;-29
2022/12/30 08:23:44;;;;;;;6.00;3.83;;;;;;;15.89;60.96;97475.94;5113280;28;20408;-28
2022/12/30 08:26:18;;;;;;;5.85;4.22;;;;;;;15.81;61.26;97480.09;5123748;28;20066;-29
2022/12/30 08:28:44;;;;;;;6.85;4.47;;;;;;;15.76;61.65;97497.78;5120154;28;20026;-28
2022/12/30 08:31:15;;;;;;;7.03;4.00;;;;;;;15.75;61.70;97507.19;5121013;28;20032;-28
2022/12/30 08:33:42;;;;;;;6.85;4.10;;;;;;;15.73;61.82;97508.81;5113821;28;20033;-29
2022/12/30 08:36:10;;;;;;;6.45;3.70;;;;;;;15.70;61.94;97509.72;5123895;28;20038;-28
2022/12/30 08:38:42;;;;;;;7.25;3.90;;;;;;;15.73;61.86;97512.31;5131874;28;20035;-28
2022/12/30 08:41:09;;;;;;;6.25;4.00;;;;;;;15.78;61.76;97511.81;5132172;28;20038;-28
2022/12/30 08:43:38;;;;;;;5.80;4.00;;;;;;;15.67;62.06;97514.06;5119342;28;20736;-28
2022/12/30 08:46:04;;;;;;;9.45;4.03;;;;;;;15.71;62.29;97514.72;5111577;28;20080;-28
2022/12/30 08:48:30;;;;;;;5.30;3.70;;;;;;;15.80;61.50;97525.03;5111266;28;20024;-28
2022/12/30 08:50:56;;;;;;;6.15;3.88;;;;;;;15.61;62.57;97525.97;5113555;28;20030;-28
2022/12/30 08:53:22;;;;;;;5.70;3.67;;;;;;;15.73;61.87;97523.25;5115535;28;20027;-28
2022/12/30 08:55:48;;;;;;;7.22;4.15;;;;;;;15.79;61.97;97531.72;5115212;28;20376;-29
2022/12/30 08:58:13;;;;;;;5.45;3.65;;;;;;;15.90;61.42;97532.19;5115299;28;20505;-28
2022/12/30 09:00:39;;;;;;;4.90;3.72;;;;;;;15.80;62.12;97530.50;5114794;28;20112;-28
2022/12/30 09:03:05;;;;;;;6.63;3.90;;;;;;;15.81;62.09;97551.19;5115323;28;20133;-28
2022/12/30 09:05:34;;;;;;;6.80;3.50;;;;;;;15.82;62.03;97534.31;5115310;28;20106;-28
2022/12/30 09:07:59;;;;;;;6.72;3.78;;;;;;;15.75;62.35;97541.97;5115246;28;20024;-29
2022/12/30 09:10:26;;;;;;;7.07;3.97;;;;;;;15.81;62.14;97545.72;5115182;28;20034;-29
2022/12/30 09:12:52;;;;;;;5.60;3.80;;;;;;;15.67;63.04;97555.09;5114674;28;20084;-29
2022/12/30 09:15:17;;;;;;;7.95;3.92;;;;;;;15.77;62.36;97545.81;5114945;28;20024;-28
2022/12/30 09:17:43;;;;;;;6.28;3.67;;;;;;;15.76;62.69;97555.22;5114898;28;20047;-29
2022/12/30 09:20:08;;;;;;;8.82;4.05;;;;;;;15.76;62.62;97544.28;5125886;27;20034;-28
2022/12/30 09:22:34;;;;;;;7.85;3.80;;;;;;;15.80;62.58;97538.72;5135381;27;20023;-28
2022/12/30 09:24:59;;;;;;;5.85;4.15;;;;;;;15.61;63.56;97553.31;5135175;27;20557;-30
2022/12/30 09:27:25;;;;;;;5.35;4.25;;;;;;;15.62;63.60;97552.09;5135450;27;20027;-29
2022/12/30 09:29:51;;;;;;;5.88;4.68;;;;;;;15.39;64.72;97542.16;5135371;27;20023;-28
2022/12/30 09:32:16;;;;;;;6.55;4.30;;;;;;;15.69;63.32;97551.94;5135303;27;20467;-28
2022/12/30 09:34:41;;;;;;;7.88;4.35;;;;;;;15.62;63.81;97549.38;5135297;27;20015;-29
2022/12/30 09:37:08;;;;;;;7.78;4.32;;;;;;;15.69;63.72;97549.97;5134853;27;20058;-29
2022/12/30 09:39:34;;;;;;;7.05;4.18;;;;;;;15.77;63.24;97542.31;5135008;27;20115;-29
2022/12/30 09:45:02;;;;;;;6.32;4.50;;;;;;;15.82;62.97;97541.03;5135207;27;20030;-30
2022/12/30 09:47:36;;;;;;;8.13;4.88;;;;;;;15.70;63.78;97534.31;5135104;27;20027;-29
2022/12/30 09:50:12;;;;;;;7.55;4.40;;;;;;;15.60;64.23;97544.34;5134583;27;20030;-28
2022/12/30 09:53:01;;;;;;;8.43;4.35;;;;;;;15.85;63.12;97521.75;5134904;27;20023;-28
2022/12/30 09:55:33;;;;;;;17.13;5.35;;;;;;;15.74;63.45;97524.03;5121719;27;20027;-28
2022/12/30 09:58:08;;;;;;;9.75;4.55;;;;;;;15.62;64.18;97528.25;5114368;28;20027;-28
2022/12/30 10:00:35;;;;;;;6.35;4.47;;;;;;;15.71;63.87;97541.31;5113722;28;20139;-28
2022/12/30 10:03:19;;;;;;;6.18;4.63;;;;;;;15.65;64.12;97526.63;5095129;28;20454;-28
2022/12/30 10:05:47;;;;;;;7.97;4.75;;;;;;;15.60;64.27;97517.00;5113997;28;20118;-29
2022/12/30 10:08:15;;;;;;;6.72;4.18;;;;;;;15.69;64.11;97525.34;5113936;28;20030;-28
2022/12/30 10:10:47;;;;;;;8.60;4.55;;;;;;;15.71;64.05;97514.72;5113902;28;20030;-28
2022/12/30 10:13:31;;;;;;;8.50;4.70;;;;;;;15.60;64.31;97518.94;5130633;27;20387;-27
2022/12/30 10:16:07;;;;;;;8.05;4.38;;;;;;;15.62;64.29;97522.78;5136656;27;20056;-28
2022/12/30 10:19:02;;;;;;;6.45;4.43;;;;;;;15.67;64.09;97516.03;5136476;27;20027;-28
2022/12/30 10:22:06;;;;;;;7.07;3.95;;;;;;;15.76;63.89;97522.41;5135705;27;20482;-28
2022/12/30 10:24:58;;;;;;;7.85;4.10;;;;;;;15.73;63.77;97522.50;5136354;27;20031;-28
2022/12/30 10:27:40;;;;;;;8.45;4.25;;;;;;;15.73;63.93;97517.03;5131976;27;20015;-28
2022/12/30 10:30:21;;;;;;;6.68;4.35;;;;;;;15.78;63.55;97513.78;5116009;28;20352;-28
2022/12/30 10:33:01;;;;;;;6.93;4.35;;;;;;;15.81;63.76;97518.38;5115757;28;20031;-28
2022/12/30 10:35:31;;;;;;;7.82;4.10;;;;;;;15.88;63.37;97523.63;5115515;28;20371;-29
2022/12/30 10:38:04;;;;;;;5.65;3.80;;;;;;;15.89;63.34;97518.94;5115534;28;20391;-28
2022/12/30 10:40:56;;;;;;;5.88;4.00;;;;;;;15.99;62.79;97524.09;5115571;28;20038;-28
2022/12/30 10:44:00;;;;;;;8.07;4.13;;;;;;;15.82;63.57;97537.06;5115459;28;20024;-28
2022/12/30 10:46:47;;;;;;;;;;;;;;;15.90;63.30;97532.19;5076697;28;20047;-28
2022/12/30 10:49:30;;;;;;;6.68;4.15;;;;;;;15.80;63.73;97519.56;5115016;28;20375;-28
2022/12/30 10:51:57;;;;;;;8.32;5.63;;;;;;;15.06;67.49;97519.59;5115216;28;20139;-24
2022/12/30 10:54:23;;;;;;;10.10;5.55;;;;;;;15.49;65.56;97529.38;5114948;28;20026;-25
2022/12/30 10:56:49;;;;;;;9.13;5.68;;;;;;;15.72;64.61;97523.69;5115000;28;20019;-25
2022/12/30 10:59:21;;;;;;;9.40;5.10;;;;;;;15.84;64.27;97516.72;5114706;28;20100;-25
2022/12/30 11:01:49;;;;;;;6.13;4.70;;;;;;;15.92;63.92;97523.53;5115006;28;20030;-25
2022/12/30 11:04:40;;;;;;;11.77;6.22;;;;;;;15.80;64.32;97511.38;5114855;28;20020;-25
2022/12/30 11:07:10;;;;;;;8.48;5.25;;;;;;;15.76;64.42;97502.50;5114383;28;20023;-25
2022/12/30 11:09:35;;;;;;;6.82;4.93;;;;;;;15.97;63.51;97499.13;5114772;28;20089;-27
2022/12/30 11:15:20;;;;;;;10.05;5.90;;;;;;;15.86;64.03;97515.09;5113973;28;20030;-25
2022/12/30 11:17:48;;;;;;;10.23;5.70;;;;;;;15.96;63.90;97518.72;5112272;28;20042;-26
2022/12/30 11:20:13;;;;;;;6.85;4.85;;;;;;;16.06;63.20;97503.97;5114619;28;20149;-26
2022/12/30 11:22:53;;;;;;;6.80;4.72;;;;;;;15.90;63.48;97502.09;5114594;28;20069;-25
2022/12/30 11:25:28;;;;;;;8.95;4.95;;;;;;;15.92;63.67;97501.66;5114681;28;20475;-25
2022/12/30 11:27:57;;;;;;;9.35;4.82;;;;;;;15.90;63.53;97513.03;5114466;28;20019;-25
2022/12/30 11:30:42;;;;;;;6.25;4.82;;;;;;;15.92;63.62;97491.47;5114509;28;20030;-25
2022/12/30 11:33:19;;;;;;;9.45;5.32;;;;;;;15.62;64.49;97494.69;5114429;28;20023;-26
2022/12/30 11:35:47;;;;;;;7.50;4.95;;;;;;;15.90;63.34;97493.88;5114243;28;20032;-25
2022/12/30 11:38:31;;;;;;;9.18;5.07;;;;;;;16.14;62.49;97486.91;5114274;28;20380;-25
2022/12/30 11:40:57;;;;;;;10.35;4.78;;;;;;;16.05;62.65;97500.47;5114086;28;20027;-25
2022/12/30 11:43:23;;;;;;;8.02;4.60;;;;;;;15.93;62.84;97486.78;5114407;28;20417;-26
2022/12/30 11:45:59;;;;;;;8.05;5.10;;;;;;;15.81;63.27;97488.28;5114131;28;20416;-25
2022/12/30 11:48:28;;;;;;;16.63;9.15;;;;;;;15.69;63.67;97478.84;5129178;27;20022;-25
2022/12/30 11:50:54;;;;;;;12.52;6.05;;;;;;;15.94;62.63;97460.94;5134561;27;20023;-25
2022/12/30 11:53:21;;;;;;;10.02;5.75;;;;;;;16.04;62.33;97465.34;5134603;27;20023;-25
2022/12/30 11:55:54;;;;;;;12.73;6.55;;;;;;;15.96;62.62;97464.00;5134598;27;20387;-25
2022/12/30 11:58:20;;;;;;;9.18;5.85;;;;;;;15.81;63.25;97463.66;5134597;27;20467;-26
2022/12/30 12:00:55;;;;;;;12.52;6.55;;;;;;;15.94;62.59;97469.94;5134241;27;20118;-25
2022/12/30 12:03:21;;;;;;;9.52;5.53;;;;;;;15.96;62.43;97464.75;5134489;27;20027;-25
2022/12/30 12:05:46;;;;;;;10.15;5.53;;;;;;;16.08;62.21;97461.25;5134587;27;20049;-25
2022/12/30 12:08:20;;;;;;;12.73;5.60;;;;;;;16.01;62.17;97455.25;5134409;27;20019;-25
2022/12/30 12:10:54;;;;;;;8.45;5.50;;;;;;;16.05;62.06;97453.19;5132967;27;20034;-25
2022/12/30 12:13:46;;;;;;;7.07;5.00;;;;;;;16.12;61.72;97455.69;5132506;27;20079;-25
2022/12/30 12:16:31;;;;;;;9.85;5.22;;;;;;;15.85;62.56;97453.38;5134495;28;20463;-25
2022/12/30 12:19:30;;;;;;;7.70;4.75;;;;;;;16.02;62.17;97459.53;5133389;28;20478;-25
2022/12/30 12:22:00;;;;;;;11.55;5.15;;;;;;;15.96;62.28;97455.78;5096093;28;20065;-25
2022/12/30 12:24:35;;;;;;;7.18;5.05;;;;;;;16.13;61.56;97449.78;5113782;28;20360;-26
2022/12/30 12:27:13;;;;;;;9.68;4.47;;;;;;;16.00;61.76;97468.16;5118036;28;20024;-25
2022/12/30 12:29:39;;;;;;;8.98;5.00;;;;;;;15.94;62.24;97458.22;5118069;28;20026;-25
2022/12/30 12:32:37;;;;;;;10.40;4.80;;;;;;;16.06;61.76;97457.47;5117510;28;20396;-25
2022/12/30 12:35:10;;;;;;;8.27;4.93;;;;;;;16.09;61.39;97456.56;5117954;28;20051;-25
2022/12/30 12:37:45;;;;;;;7.45;4.65;;;;;;;15.96;62.02;97456.56;5118171;28;20468;-25
2022/12/30 12:40:33;;;;;;;7.28;5.30;;;;;;;16.02;61.79;97454.81;5117986;28;20031;-26
2022/12/30 12:43:16;;;;;;;7.32;4.80;;;;;;;16.05;61.74;97447.72;5117526;28;20022;-25
2022/12/30 12:46:15;;;;;;;7.57;4.25;;;;;;;15.93;62.19;97446.50;5117864;28;20027;-25
2022/12/30 12:49:07;;;;;;;7.20;4.25;;;;;;;16.01;61.83;97439.59;5117707;28;20112;-25
2022/12/30 12:51:42;;;;;;;7.05;4.60;;;;;;;15.94;62.35;97445.31;5117920;28;20024;-25
2022/12/30 12:54:29;;;;;;;11.35;5.25;;;;;;;15.75;63.01;97455.22;5117447;28;20145;-26
2022/12/30 12:57:04;;;;;;;7.28;4.90;;;;;;;15.76;63.12;97456.75;5117432;28;20062;-25
2022/12/30 12:59:50;;;;;;;9.95;5.18;;;;;;;15.90;62.69;97455.56;5117031;28;20131;-25
2022/12/30 13:02:53;;;;;;;10.18;4.85;;;;;;;16.11;61.70;97454.16;5099016;28;20027;-25
2022/12/30 13:05:37;;;;;;;7.40;4.63;;;;;;;15.99;62.32;97446.72;5117445;28;20034;-25
2022/12/30 13:08:31;;;;;;;8.02;4.28;;;;;;;16.11;61.85;97451.41;5117222;28;20533;-25
2022/12/30 13:11:04;;;;;;;10.55;4.70;;;;;;;16.10;61.73;97452.63;5062076;28;20033;-25
2022/12/30 13:13:42;;;;;;;8.43;4.45;;;;;;;16.04;61.97;97444.22;5117597;28;20029;-25
2022/12/30 13:16:17;;;;;;;11.18;4.68;;;;;;;16.08;61.75;97442.09;5117196;28;20039;-25
2022/12/30 13:18:46;;;;;;;6.85;4.80;;;;;;;16.03;62.12;97453.63;5098856;28;20031;-25
2022/12/30 13:21:17;;;;;;;6.68;4.20;;;;;;;15.91;62.64;97462.59;5116728;28;20015;-25